createdAt,value
2023-03-05T00:01:25.324Z,0.00
2023-03-05T00:03:54.857Z,0.00
2023-03-05T00:06:23.699Z,-0.10
2023-03-05T00:08:51.894Z,-0.10
2023-03-05T00:11:19.145Z,-0.10
2023-03-05T00:13:46.113Z,-0.10
2023-03-05T00:16:15.439Z,-0.10
2023-03-05T00:18:43.092Z,-0.10
2023-03-05T00:21:31.547Z,-0.10
2023-03-05T00:24:01.563Z,-0.10
2023-03-05T00:26:29.042Z,-0.10
2023-03-05T00:28:57.504Z,-0.10
2023-03-05T00:31:30.470Z,-0.10
2023-03-05T00:34:00.122Z,-0.10
2023-03-05T00:36:27.479Z,-0.10
2023-03-05T00:38:55.349Z,-0.10
2023-03-05T00:41:23.012Z,-0.10
2023-03-05T00:43:49.947Z,-0.10
2023-03-05T00:46:17.375Z,-0.10
2023-03-05T00:48:44.612Z,-0.10
2023-03-05T00:51:11.680Z,-0.10
2023-03-05T00:53:38.698Z,-0.10
2023-03-05T00:56:06.222Z,-0.10
2023-03-05T00:58:33.402Z,-0.10
2023-03-05T01:01:01.594Z,-0.10
2023-03-05T01:03:29.609Z,-0.10
2023-03-05T01:05:56.675Z,-0.10
2023-03-05T01:08:24.530Z,-0.10
2023-03-05T01:10:51.723Z,-0.10
2023-03-05T01:13:19.024Z,-0.10
2023-03-05T01:15:47.888Z,-0.10
2023-03-05T01:18:15.094Z,-0.10
2023-03-05T01:20:41.943Z,-0.10
2023-03-05T01:23:09.262Z,-0.10
2023-03-05T01:25:36.353Z,-0.10
2023-03-05T01:28:03.767Z,-0.10
2023-03-05T01:30:30.704Z,-0.10
2023-03-05T01:32:57.962Z,-0.10
2023-03-05T01:35:26.075Z,-0.10
2023-03-05T01:37:54.093Z,-0.10
2023-03-05T01:40:27.860Z,0.00
2023-03-05T01:43:23.220Z,0.00
2023-03-05T01:46:25.558Z,0.00
2023-03-05T01:49:14.654Z,-0.10
2023-03-05T01:52:01.730Z,-0.10
2023-03-05T01:54:43.206Z,0.00
2023-03-05T01:57:17.586Z,-0.10
2023-03-05T01:59:47.584Z,-0.10
2023-03-05T02:02:14.972Z,-0.10
2023-03-05T02:04:50.813Z,-0.10
2023-03-05T02:07:18.876Z,-0.10
2023-03-05T02:09:45.778Z,-0.10
2023-03-05T02:12:14.132Z,-0.10
2023-03-05T02:14:44.299Z,-0.10
2023-03-05T02:17:11.767Z,-0.10
2023-03-05T02:19:53.458Z,-0.10
2023-03-05T02:22:22.750Z,-0.10
2023-03-05T02:24:50.902Z,-0.10
2023-03-05T02:27:21.077Z,0.00
2023-03-05T02:29:48.315Z,-0.10
2023-03-05T02:32:15.382Z,-0.10
2023-03-05T02:34:42.477Z,-0.10
2023-03-05T02:37:10.679Z,0.00
2023-03-05T02:39:39.703Z,-0.10
2023-03-05T02:42:07.108Z,-0.10
2023-03-05T02:44:34.079Z,0.00
2023-03-05T02:47:01.211Z,0.00
2023-03-05T02:49:28.884Z,-0.10
2023-03-05T02:51:55.825Z,-0.10
2023-03-05T02:54:22.931Z,-0.10
2023-03-05T02:56:50.394Z,-0.10
2023-03-05T02:59:17.428Z,-0.10
2023-03-05T03:01:44.401Z,-0.10
2023-03-05T03:04:11.343Z,-0.10
2023-03-05T03:06:38.274Z,-0.10
2023-03-05T03:09:05.201Z,-0.10
2023-03-05T03:11:32.121Z,-0.10
2023-03-05T03:14:00.446Z,-0.10
2023-03-05T03:16:27.414Z,-0.10
2023-03-05T03:18:54.340Z,-0.10
2023-03-05T03:21:24.447Z,-0.10
2023-03-05T03:23:51.587Z,-0.10
2023-03-05T03:26:19.030Z,-0.10
2023-03-05T03:28:45.950Z,-0.20
2023-03-05T03:31:12.940Z,-0.10
2023-03-05T03:33:39.879Z,-0.20
2023-03-05T03:36:07.295Z,-0.10
2023-03-05T03:38:34.181Z,-0.10
2023-03-05T03:41:01.112Z,-0.10
2023-03-05T03:43:28.011Z,-0.20
2023-03-05T03:45:54.945Z,-0.10
2023-03-05T03:48:21.852Z,-0.10
2023-03-05T03:50:48.818Z,-0.10
2023-03-05T03:53:17.478Z,-0.20
2023-03-05T03:55:46.639Z,-0.20
2023-03-05T03:58:14.079Z,-0.20
2023-03-05T04:00:41.658Z,-0.20
2023-03-05T04:03:09.324Z,-0.10
2023-03-05T04:05:36.204Z,-0.20
2023-03-05T04:08:03.587Z,-0.10
2023-03-05T04:10:30.660Z,-0.20
2023-03-05T04:12:57.626Z,-0.20
2023-03-05T04:15:25.302Z,-0.20
2023-03-05T04:17:52.388Z,-0.20
2023-03-05T04:20:19.412Z,-0.20
2023-03-05T04:22:46.382Z,-0.20
2023-03-05T04:25:13.303Z,-0.20
2023-03-05T04:27:40.498Z,-0.10
2023-03-05T04:30:09.540Z,-0.20
2023-03-05T04:32:36.644Z,-0.20
2023-03-05T04:35:03.940Z,-0.20
2023-03-05T04:37:30.935Z,-0.20
2023-03-05T04:39:57.971Z,-0.20
2023-03-05T04:42:24.945Z,-0.20
2023-03-05T04:44:52.120Z,-0.20
2023-03-05T04:47:19.650Z,-0.20
2023-03-05T04:49:46.671Z,-0.20
2023-03-05T04:52:14.815Z,-0.20
2023-03-05T04:54:41.786Z,-0.20
2023-03-05T04:57:09.840Z,-0.20
2023-03-05T04:59:38.217Z,-0.20
2023-03-05T05:02:05.583Z,-0.10
2023-03-05T05:04:33.831Z,-0.20
2023-03-05T05:07:00.816Z,-0.10
2023-03-05T05:09:27.860Z,-0.10
2023-03-05T05:11:54.828Z,-0.10
2023-03-05T05:14:22.110Z,-0.10
2023-03-05T05:16:49.021Z,-0.10
2023-03-05T05:19:16.245Z,-0.10
2023-03-05T05:21:43.457Z,-0.10
2023-03-05T05:24:10.425Z,-0.10
2023-03-05T05:26:37.294Z,-0.10
2023-03-05T05:29:04.240Z,-0.10
2023-03-05T05:31:31.113Z,-0.10
2023-03-05T05:33:58.125Z,-0.10
2023-03-05T05:36:25.192Z,-0.10
2023-03-05T05:38:52.126Z,-0.10
2023-03-05T05:41:19.908Z,0.00
2023-03-05T05:43:47.283Z,-0.10
2023-03-05T05:46:18.082Z,0.00
2023-03-05T05:48:46.020Z,0.00
2023-03-05T05:51:16.299Z,-0.10
2023-03-05T05:53:43.723Z,-0.10
2023-03-05T05:56:12.134Z,0.00
2023-03-05T05:58:40.681Z,0.00
2023-03-05T06:01:26.547Z,0.00
2023-03-05T06:03:53.644Z,0.00
2023-03-05T06:06:22.798Z,0.00
2023-03-05T06:08:50.727Z,0.00
2023-03-05T06:11:19.414Z,0.00
2023-03-05T06:13:47.585Z,0.00
2023-03-05T06:16:18.247Z,0.00
2023-03-05T06:18:45.218Z,0.00
2023-03-05T06:21:15.115Z,0.00
2023-03-05T06:23:42.770Z,0.10
2023-03-05T06:26:12.702Z,0.10
2023-03-05T06:28:39.962Z,0.10
2023-03-05T06:31:15.461Z,0.10
2023-03-05T06:33:42.824Z,0.10
2023-03-05T06:36:12.910Z,0.10
2023-03-05T06:38:40.691Z,0.10
2023-03-05T06:41:20.247Z,0.10
2023-03-05T06:43:48.512Z,0.10
2023-03-05T06:46:27.216Z,0.10
2023-03-05T06:49:00.411Z,0.10
2023-03-05T06:51:47.588Z,0.10
2023-03-05T06:54:16.483Z,0.10
2023-03-05T06:56:45.674Z,0.10
2023-03-05T06:59:14.973Z,0.10
2023-03-05T07:01:42.308Z,0.20
2023-03-05T07:04:10.769Z,0.20
2023-03-05T07:06:39.393Z,0.20
2023-03-05T07:09:07.844Z,0.20
2023-03-05T07:11:35.350Z,0.20
2023-03-05T07:14:03.282Z,0.30
2023-03-05T07:16:33.487Z,0.30
2023-03-05T07:19:05.254Z,0.30
2023-03-05T07:21:33.980Z,0.30
2023-03-05T07:24:02.874Z,0.30
2023-03-05T07:26:31.084Z,0.40
2023-03-05T07:28:58.223Z,0.30
2023-03-05T07:31:31.726Z,0.40
2023-03-05T07:34:00.122Z,0.40
2023-03-05T07:36:27.420Z,0.40
2023-03-05T07:38:54.341Z,0.40
2023-03-05T07:41:23.626Z,0.50
2023-03-05T07:43:53.061Z,0.50
2023-03-05T07:46:22.572Z,0.60
2023-03-05T07:48:49.746Z,0.60
2023-03-05T07:51:20.022Z,0.60
2023-03-05T07:53:49.654Z,0.60
2023-03-05T07:56:24.330Z,0.70
2023-03-05T07:58:51.506Z,0.70
2023-03-05T08:01:18.815Z,0.70
2023-03-05T08:03:45.931Z,0.80
2023-03-05T08:06:13.369Z,0.80
2023-03-05T08:08:40.262Z,0.90
2023-03-05T08:11:09.590Z,0.90
2023-03-05T08:13:37.804Z,0.90
2023-03-05T08:16:06.953Z,0.90
2023-03-05T08:18:34.544Z,0.90
2023-03-05T08:21:01.641Z,0.90
2023-03-05T08:23:28.970Z,1.00
2023-03-05T08:25:55.905Z,1.00
2023-03-05T08:28:23.288Z,1.00
2023-03-05T08:30:50.363Z,1.10
2023-03-05T08:33:17.827Z,1.20
2023-03-05T08:35:45.026Z,1.20
2023-03-05T08:38:12.110Z,1.30
2023-03-05T08:40:39.141Z,1.30
2023-03-05T08:43:07.338Z,1.30
2023-03-05T08:45:34.536Z,1.30
2023-03-05T08:48:01.525Z,1.40
2023-03-05T08:50:28.472Z,1.40
2023-03-05T08:52:57.099Z,1.40
2023-03-05T08:55:24.262Z,1.50
2023-03-05T08:57:51.362Z,1.50
2023-03-05T09:00:18.801Z,1.50
2023-03-05T09:02:45.920Z,1.50
2023-03-05T09:05:12.947Z,1.60
2023-03-05T09:07:39.880Z,1.60
2023-03-05T09:10:07.743Z,1.60
2023-03-05T09:12:34.758Z,1.60
2023-03-05T09:15:01.745Z,1.60
2023-03-05T09:17:28.679Z,1.70
2023-03-05T09:19:55.648Z,1.70
2023-03-05T09:22:22.580Z,1.80
2023-03-05T09:24:49.458Z,1.90
2023-03-05T09:27:16.475Z,1.90
2023-03-05T09:29:43.407Z,1.90
2023-03-05T09:32:10.846Z,2.00
2023-03-05T09:34:38.076Z,2.00
2023-03-05T09:37:05.333Z,2.00
2023-03-05T09:39:32.370Z,2.10
2023-03-05T09:41:59.172Z,2.10
2023-03-05T09:44:46.955Z,2.20
2023-03-05T09:47:43.461Z,2.30
2023-03-05T09:50:40.085Z,2.30
2023-03-05T09:53:20.644Z,2.40
2023-03-05T09:55:52.156Z,2.40
2023-03-05T09:58:37.324Z,2.50
2023-03-05T10:01:07.554Z,2.50
2023-03-05T10:03:34.328Z,2.60
2023-03-05T10:06:33.649Z,2.60
2023-03-05T10:09:20.954Z,2.70
2023-03-05T10:12:14.173Z,2.70
2023-03-05T10:14:41.771Z,2.70
2023-03-05T10:17:26.471Z,2.70
2023-03-05T10:19:56.470Z,2.70
2023-03-05T10:22:33.585Z,2.80
2023-03-05T10:25:24.900Z,2.80
2023-03-05T10:28:09.807Z,2.80
2023-03-05T10:30:54.479Z,2.90
2023-03-05T10:33:31.185Z,2.90
2023-03-05T10:36:41.540Z,2.90
2023-03-05T10:39:30.253Z,2.90
2023-03-05T10:42:31.047Z,2.90
2023-03-05T10:45:00.861Z,2.90
2023-03-05T10:47:49.984Z,2.90
2023-03-05T10:50:27.626Z,2.80
2023-03-05T10:52:57.241Z,2.80
2023-03-05T10:55:24.183Z,2.80
2023-03-05T10:57:50.958Z,2.80
2023-03-05T11:00:19.808Z,2.80
2023-03-05T11:03:08.278Z,2.70
2023-03-05T11:05:50.280Z,2.70
2023-03-05T11:08:36.289Z,2.70
2023-03-05T11:11:19.200Z,2.70
2023-03-05T11:14:01.279Z,2.70
2023-03-05T11:16:31.364Z,2.70
2023-03-05T11:19:25.052Z,2.60
2023-03-05T11:22:24.861Z,2.60
2023-03-05T11:25:18.963Z,2.50
2023-03-05T11:27:55.392Z,2.40
2023-03-05T11:30:30.154Z,2.40
2023-03-05T11:33:20.337Z,2.30
2023-03-05T11:35:48.648Z,2.20
2023-03-05T11:38:27.851Z,2.20
2023-03-05T11:40:57.144Z,2.20
2023-03-05T11:43:25.904Z,2.20
2023-03-05T11:45:57.873Z,2.30
2023-03-05T11:48:37.616Z,2.20
2023-03-05T11:51:15.327Z,2.30
2023-03-05T11:53:44.912Z,2.30
2023-03-05T11:56:37.050Z,2.30
2023-03-05T11:59:24.243Z,2.30
2023-03-05T12:01:54.314Z,2.30
2023-03-05T12:04:22.323Z,2.30
2023-03-05T12:06:52.293Z,2.30
2023-03-05T12:09:33.787Z,2.30
2023-03-05T12:12:30.920Z,2.30
2023-03-05T12:15:25.986Z,2.30
2023-03-05T12:18:04.756Z,2.20
2023-03-05T12:20:50.364Z,2.20
2023-03-05T12:23:20.527Z,2.20
2023-03-05T12:25:50.781Z,2.20
2023-03-05T12:28:43.400Z,2.20
2023-03-05T12:31:10.435Z,2.20
2023-03-05T12:33:42.693Z,2.20
2023-03-05T12:36:21.080Z,2.20
2023-03-05T12:38:58.051Z,2.30
2023-03-05T12:41:27.465Z,2.20
2023-03-05T12:44:07.162Z,2.30
2023-03-05T12:46:38.442Z,2.30
2023-03-05T12:49:21.252Z,2.30
2023-03-05T12:52:01.467Z,2.40
2023-03-05T12:54:39.832Z,2.50
2023-03-05T12:57:17.469Z,2.60
2023-03-05T13:00:11.077Z,2.70
2023-03-05T13:02:44.419Z,2.70
2023-03-05T13:05:47.834Z,2.80
2023-03-05T13:08:28.343Z,2.90
2023-03-05T13:10:58.954Z,3.00
2023-03-05T13:13:27.851Z,3.00
2023-03-05T13:15:55.235Z,3.10
2023-03-05T13:18:25.921Z,3.10
2023-03-05T13:21:07.248Z,3.20
2023-03-05T13:23:35.419Z,3.10
2023-03-05T13:26:12.048Z,3.20
2023-03-05T13:28:39.944Z,3.20
2023-03-05T13:31:14.569Z,3.10
2023-03-05T13:33:53.174Z,3.00
2023-03-05T13:36:25.234Z,3.00
2023-03-05T13:38:53.210Z,3.00
2023-03-05T13:41:24.408Z,3.00
2023-03-05T13:44:00.776Z,3.00
2023-03-05T13:46:40.082Z,3.00
2023-03-05T13:49:27.291Z,3.00
2023-03-05T13:51:56.871Z,2.90
2023-03-05T13:54:25.064Z,2.80
2023-03-05T13:56:56.668Z,2.80
2023-03-05T13:59:31.838Z,2.70
2023-03-05T14:02:01.289Z,2.70
2023-03-05T14:04:37.430Z,2.70
2023-03-05T14:07:24.884Z,2.70
2023-03-05T14:09:52.280Z,2.70
2023-03-05T14:12:42.741Z,2.80
2023-03-05T14:15:30.991Z,2.80
2023-03-05T14:18:13.158Z,2.70
2023-03-05T14:21:01.777Z,2.80
2023-03-05T14:23:42.967Z,2.70
2023-03-05T14:26:29.389Z,2.70
2023-03-05T14:28:58.299Z,2.70
2023-03-05T14:31:26.914Z,2.70
2023-03-05T14:33:59.711Z,2.70
2023-03-05T14:36:29.053Z,2.70
2023-03-05T14:38:56.915Z,2.60
2023-03-05T14:41:40.186Z,2.60
2023-03-05T14:44:15.494Z,2.60
2023-03-05T14:46:43.402Z,2.50
2023-03-05T14:49:10.424Z,2.50
2023-03-05T14:51:43.427Z,2.50
2023-03-05T14:54:26.444Z,2.50
2023-03-05T14:56:54.020Z,2.50
2023-03-05T14:59:21.690Z,2.50
2023-03-05T15:01:50.382Z,2.50
2023-03-05T15:04:19.633Z,2.50
2023-03-05T15:06:50.841Z,2.50
2023-03-05T15:09:19.767Z,2.40
2023-03-05T15:11:47.100Z,2.40
2023-03-05T15:14:13.950Z,2.30
2023-03-05T15:16:43.595Z,2.30
2023-03-05T15:19:13.737Z,2.30
2023-03-05T15:21:40.917Z,2.30
2023-03-05T15:24:10.137Z,2.20
2023-03-05T15:26:37.681Z,2.20
2023-03-05T15:29:05.037Z,2.20
2023-03-05T15:31:38.303Z,2.20
2023-03-05T15:34:05.484Z,2.20
2023-03-05T15:36:33.742Z,2.10
2023-03-05T15:39:00.761Z,2.10
2023-03-05T15:41:27.715Z,2.10
2023-03-05T15:43:54.498Z,2.10
2023-03-05T15:46:21.376Z,2.00
2023-03-05T15:48:50.124Z,2.00
2023-03-05T15:51:17.628Z,2.00
2023-03-05T15:53:46.310Z,2.00
2023-03-05T15:56:19.792Z,2.00
2023-03-05T15:58:50.660Z,2.00
2023-03-05T16:01:20.841Z,1.90
2023-03-05T16:03:47.831Z,1.90
2023-03-05T16:06:15.989Z,1.90
2023-03-05T16:08:44.599Z,1.90
2023-03-05T16:11:11.490Z,1.80
2023-03-05T16:13:38.439Z,1.80
2023-03-05T16:16:07.857Z,1.80
2023-03-05T16:18:38.739Z,1.80
2023-03-05T16:21:05.742Z,1.80
2023-03-05T16:23:32.480Z,1.70
2023-03-05T16:25:59.916Z,1.70
2023-03-05T16:28:26.860Z,1.70
2023-03-05T16:30:57.896Z,1.60
2023-03-05T16:33:25.571Z,1.60
2023-03-05T16:36:20.226Z,1.70
2023-03-05T16:38:52.556Z,1.60
2023-03-05T16:41:22.008Z,1.50
2023-03-05T16:43:51.041Z,1.60
2023-03-05T16:46:17.872Z,1.50
2023-03-05T16:48:44.731Z,1.50
2023-03-05T16:51:12.331Z,1.50
2023-03-05T16:53:40.138Z,1.40
2023-03-05T16:56:09.687Z,1.40
2023-03-05T16:58:38.691Z,1.40
2023-03-05T17:01:19.579Z,1.30
2023-03-05T17:03:47.687Z,1.30
2023-03-05T17:06:21.054Z,1.30
2023-03-05T17:08:48.902Z,1.30
2023-03-05T17:11:16.237Z,1.30
2023-03-05T17:13:43.517Z,1.20
2023-03-05T17:16:13.153Z,1.20
2023-03-05T17:18:40.744Z,1.20
2023-03-05T17:21:08.639Z,1.20
2023-03-05T17:23:36.384Z,1.20
2023-03-05T17:26:12.147Z,1.10
2023-03-05T17:28:39.627Z,1.10
2023-03-05T17:31:06.644Z,1.10
2023-03-05T17:33:34.681Z,1.10
2023-03-05T17:36:01.942Z,1.10
2023-03-05T17:38:29.182Z,1.10
2023-03-05T17:40:56.352Z,1.10
2023-03-05T17:43:23.582Z,1.00
2023-03-05T17:45:50.857Z,1.00
2023-03-05T17:48:17.647Z,1.00
2023-03-05T17:50:45.127Z,1.00
2023-03-05T17:53:12.622Z,1.10
2023-03-05T17:55:39.832Z,1.10
2023-03-05T17:58:07.138Z,1.10
2023-03-05T18:00:34.381Z,1.10
2023-03-05T18:03:01.515Z,1.00
2023-03-05T18:05:28.596Z,1.00
2023-03-05T18:07:56.127Z,1.00
2023-03-05T18:10:28.293Z,1.00
2023-03-05T18:12:55.395Z,1.00
2023-03-05T18:15:23.763Z,1.00
2023-03-05T18:17:51.466Z,1.00
2023-03-05T18:20:30.170Z,1.00
2023-03-05T18:22:58.413Z,0.90
2023-03-05T18:25:30.828Z,1.00
2023-03-05T18:28:03.064Z,0.90
2023-03-05T18:30:31.031Z,0.90
2023-03-05T18:32:58.139Z,0.90
2023-03-05T18:35:25.290Z,0.90
2023-03-05T18:37:52.359Z,0.90
2023-03-05T18:40:22.633Z,0.90
2023-03-05T18:42:50.364Z,0.90
2023-03-05T18:45:19.881Z,0.90
2023-03-05T18:47:47.922Z,0.90
2023-03-05T18:50:18.486Z,0.90
2023-03-05T18:52:46.336Z,0.80
2023-03-05T18:55:22.607Z,0.80
2023-03-05T18:57:49.569Z,0.80
2023-03-05T19:00:21.851Z,0.80
2023-03-05T19:02:49.426Z,0.80
2023-03-05T19:05:16.924Z,0.80
2023-03-05T19:07:43.865Z,0.80
2023-03-05T19:10:13.474Z,0.70
2023-03-05T19:12:50.942Z,0.70
2023-03-05T19:15:17.975Z,0.70
2023-03-05T19:17:44.841Z,0.70
2023-03-05T19:20:13.610Z,0.70
2023-03-05T19:22:40.560Z,0.70
2023-03-05T19:25:08.815Z,0.70
2023-03-05T19:27:36.318Z,0.70
2023-03-05T19:30:04.603Z,0.60
2023-03-05T19:32:31.513Z,0.60
2023-03-05T19:34:58.469Z,0.70
2023-03-05T19:37:25.462Z,0.60
2023-03-05T19:39:52.684Z,0.60
2023-03-05T19:42:19.781Z,0.60
2023-03-05T19:44:46.698Z,0.60
2023-03-05T19:47:13.418Z,0.60
2023-03-05T19:49:40.322Z,0.60
2023-03-05T19:52:07.633Z,0.60
2023-03-05T19:54:34.676Z,0.60
2023-03-05T19:57:01.646Z,0.50
2023-03-05T19:59:28.451Z,0.60
2023-03-05T20:01:57.284Z,0.60
2023-03-05T20:04:24.980Z,0.60
2023-03-05T20:06:52.042Z,0.60
2023-03-05T20:09:19.215Z,0.60
2023-03-05T20:11:46.306Z,0.60
2023-03-05T20:14:14.601Z,0.60
2023-03-05T20:16:43.335Z,0.60
2023-03-05T20:19:17.801Z,0.60
2023-03-05T20:21:45.707Z,0.50
2023-03-05T20:24:15.896Z,0.50
2023-03-05T20:26:44.135Z,0.50
2023-03-05T20:29:11.810Z,0.50
2023-03-05T20:31:38.918Z,0.50
2023-03-05T20:34:08.065Z,0.50
2023-03-05T20:36:34.954Z,0.50
2023-03-05T20:39:03.761Z,0.50
2023-03-05T20:41:32.125Z,0.50
2023-03-05T20:43:58.985Z,0.50
2023-03-05T20:46:34.961Z,0.50
2023-03-05T20:49:03.976Z,0.50
2023-03-05T20:51:32.579Z,0.50
2023-03-05T20:54:08.258Z,0.50
2023-03-05T20:56:35.975Z,0.50
2023-03-05T20:59:06.229Z,0.50
2023-03-05T21:01:35.696Z,0.50
2023-03-05T21:04:03.126Z,0.40
2023-03-05T21:06:32.556Z,0.50
2023-03-05T21:09:00.054Z,0.40
2023-03-05T21:11:27.358Z,0.40
2023-03-05T21:13:54.205Z,0.50
2023-03-05T21:16:27.012Z,0.40
2023-03-05T21:18:55.922Z,0.40
2023-03-05T21:21:22.918Z,0.40
2023-03-05T21:23:50.005Z,0.40
2023-03-05T21:26:17.021Z,0.40
2023-03-05T21:28:43.944Z,0.40
2023-03-05T21:31:16.893Z,0.40
2023-03-05T21:33:43.868Z,0.40
2023-03-05T21:36:10.769Z,0.40
2023-03-05T21:38:37.819Z,0.40
2023-03-05T21:41:05.440Z,0.40
2023-03-05T21:43:32.670Z,0.30
2023-03-05T21:46:01.973Z,0.30
2023-03-05T21:48:29.273Z,0.30
2023-03-05T21:50:57.227Z,0.20
2023-03-05T21:53:24.634Z,0.30
2023-03-05T21:56:04.192Z,0.20
2023-03-05T21:58:35.221Z,0.20
2023-03-05T22:01:02.585Z,0.20
2023-03-05T22:03:30.120Z,0.20
2023-03-05T22:05:57.285Z,0.20
2023-03-05T22:08:24.520Z,0.20
2023-03-05T22:10:51.446Z,0.20
2023-03-05T22:13:20.178Z,0.20
2023-03-05T22:15:55.311Z,0.20
2023-03-05T22:18:25.437Z,0.20
2023-03-05T22:20:53.174Z,0.20
2023-03-05T22:23:22.348Z,0.10
2023-03-05T22:26:03.580Z,0.10
2023-03-05T22:28:31.511Z,0.10
2023-03-05T22:30:58.811Z,0.20
2023-03-05T22:33:26.061Z,0.20
2023-03-05T22:35:53.111Z,0.20
2023-03-05T22:38:20.456Z,0.20
2023-03-05T22:40:48.972Z,0.10
2023-03-05T22:43:17.521Z,0.10
2023-03-05T22:45:44.690Z,0.10
2023-03-05T22:48:12.434Z,0.10
2023-03-05T22:50:41.491Z,0.10
2023-03-05T22:53:08.493Z,0.10
2023-03-05T22:55:38.970Z,0.10
2023-03-05T22:58:05.984Z,0.10
2023-03-05T23:00:33.527Z,0.20
2023-03-05T23:03:00.456Z,0.20
2023-03-05T23:05:27.335Z,0.10
2023-03-05T23:07:54.144Z,0.10
2023-03-05T23:10:26.664Z,0.10
2023-03-05T23:12:55.454Z,0.10
2023-03-05T23:15:31.266Z,0.10
2023-03-05T23:17:58.744Z,0.10
2023-03-05T23:20:29.317Z,0.10
2023-03-05T23:22:56.704Z,0.10
2023-03-05T23:25:27.099Z,0.10
2023-03-05T23:27:54.348Z,0.10
2023-03-05T23:30:21.331Z,0.10
2023-03-05T23:33:06.388Z,0.10
2023-03-05T23:35:37.773Z,0.10
2023-03-05T23:38:13.972Z,0.10
2023-03-05T23:40:53.884Z,0.10
2023-03-05T23:43:24.519Z,0.10
2023-03-05T23:45:56.104Z,0.10
2023-03-05T23:48:24.531Z,0.10
2023-03-05T23:50:51.637Z,0.10
2023-03-05T23:53:21.543Z,0.10
2023-03-05T23:55:49.017Z,0.10
2023-03-05T23:58:16.583Z,0.10
